Time;durP1;ratioP1;P1;durP2;ratioP2;P2;SDS_P1;SDS_P2;PMS_P1;PMS_P2;Temp;Humidity;BMP_temperature;BMP_pressure;BME280_temperature;BME280_humidity;BME280_pressure;Samples;Min_cycle;Max_cycle;Signal;HPM_P1;HPM_P2
2022/08/06 00:01:51;;;;;;;8.57;5.70;;;;;;;25.71;47.71;94804.00;5021192;28;20022;-63
2022/08/06 00:04:17;;;;;;;12.05;6.43;;;;;;;25.65;47.64;94788.97;5021517;28;20029;-66
2022/08/06 00:06:43;;;;;;;7.95;5.28;;;;;;;25.53;47.49;94777.50;5021077;28;20128;-68
2022/08/06 00:09:08;;;;;;;6.13;4.97;;;;;;;25.62;47.66;94800.94;5021480;28;20044;-58
2022/08/06 00:11:34;;;;;;;8.10;4.72;;;;;;;25.61;47.37;94794.00;5021777;28;20033;-69
2022/08/06 00:14:00;;;;;;;11.00;5.30;;;;;;;25.59;47.65;94796.53;5021397;28;20578;-63
2022/08/06 00:16:26;;;;;;;6.05;5.15;;;;;;;25.57;47.60;94810.00;5021166;28;20128;-64
2022/08/06 00:18:51;;;;;;;8.95;5.35;;;;;;;25.53;47.79;94799.38;5021208;28;20033;-68
2022/08/06 00:21:17;;;;;;;7.65;5.93;;;;;;;25.45;47.79;94793.06;5020478;28;20042;-65
2022/08/06 00:23:43;;;;;;;7.63;5.05;;;;;;;25.47;47.75;94800.75;5021169;28;20064;-59
2022/08/06 00:26:08;;;;;;;7.40;5.38;;;;;;;25.48;47.97;94796.75;5020969;28;20035;-60
2022/08/06 00:28:34;;;;;;;8.50;5.50;;;;;;;25.48;47.97;94808.41;5021203;28;20036;-59
2022/08/06 00:31:00;;;;;;;7.68;5.53;;;;;;;25.44;47.91;94808.03;5003854;28;20022;-56
2022/08/06 00:33:26;;;;;;;9.38;5.68;;;;;;;25.34;48.20;94792.56;5021220;28;20263;-61
2022/08/06 00:35:51;;;;;;;10.07;6.00;;;;;;;25.39;48.31;94805.41;5020848;28;20060;-65
2022/08/06 00:38:17;;;;;;;9.60;5.75;;;;;;;25.40;48.46;94818.53;5020171;28;20508;-65
2022/08/06 00:40:42;;;;;;;9.20;5.20;;;;;;;25.36;48.43;94806.44;5020938;28;20098;-56
2022/08/06 00:43:08;;;;;;;6.97;5.28;;;;;;;25.31;48.40;94804.56;5003831;28;20025;-62
2022/08/06 00:45:33;;;;;;;6.82;5.63;;;;;;;25.34;48.22;94814.44;5022678;28;20040;-58
2022/08/06 00:47:59;;;;;;;7.15;5.65;;;;;;;25.22;48.36;94802.25;5003810;28;20041;-56
2022/08/06 00:50:25;;;;;;;6.47;5.47;;;;;;;25.28;48.01;94805.63;5020715;28;20049;-56
2022/08/06 00:52:51;;;;;;;6.57;4.90;;;;;;;25.29;48.26;94806.34;5020552;28;20436;-56
2022/08/06 00:55:16;;;;;;;8.90;5.65;;;;;;;25.26;48.38;94808.16;5020944;28;20029;-57
2022/08/06 00:57:41;;;;;;;9.10;5.25;;;;;;;25.28;48.12;94813.81;5020767;28;20069;-57
2022/08/06 01:00:07;;;;;;;6.18;5.18;;;;;;;25.26;48.07;94808.16;5020896;28;20034;-57
2022/08/06 01:02:33;;;;;;;8.43;5.50;;;;;;;25.22;48.31;94807.72;5021302;28;20041;-60
2022/08/06 01:04:59;;;;;;;6.88;5.40;;;;;;;25.19;48.30;94806.03;5020641;28;20045;-56
2022/08/06 01:07:24;;;;;;;9.57;5.35;;;;;;;25.20;48.51;94815.72;5020812;28;20447;-57
2022/08/06 01:09:50;;;;;;;6.68;5.15;;;;;;;24.92;48.45;94771.75;5019924;28;20160;-64
2022/08/06 01:12:16;;;;;;;6.80;5.20;;;;;;;25.14;48.70;94817.81;5020558;28;20049;-57
2022/08/06 01:14:42;;;;;;;6.07;5.03;;;;;;;25.06;48.65;94795.09;4995711;28;20054;-58
2022/08/06 01:17:19;;;;;;;6.30;4.93;;;;;;;25.11;48.48;94802.47;4985820;28;20042;-56
2022/08/06 01:20:05;;;;;;;7.13;5.40;;;;;;;25.10;48.90;94806.47;4984484;28;20029;-65
2022/08/06 01:22:42;;;;;;;7.78;5.43;;;;;;;25.09;48.88;94802.25;4999460;28;20062;-64
2022/08/06 01:25:23;;;;;;;6.88;5.47;;;;;;;25.05;48.57;94799.13;5001034;28;20026;-66
2022/08/06 01:28:10;;;;;;;7.53;4.82;;;;;;;25.01;48.96;94804.16;4990002;28;20057;-64
2022/08/06 01:30:37;;;;;;;7.25;5.30;;;;;;;24.97;48.51;94792.75;4998785;28;20040;-69
2022/08/06 01:33:07;;;;;;;6.05;4.97;;;;;;;25.00;48.94;94797.19;4999163;28;20382;-68
2022/08/06 01:35:38;;;;;;;8.40;4.93;;;;;;;24.92;49.14;94785.41;4999350;28;20038;-64
2022/08/06 01:38:06;;;;;;;9.65;5.00;;;;;;;25.00;49.33;94797.19;5000208;28;20060;-66
2022/08/06 01:40:33;;;;;;;6.70;4.85;;;;;;;24.99;49.40;94800.44;4999383;28;20038;-59
2022/08/06 01:42:59;;;;;;;7.18;5.28;;;;;;;24.99;49.14;94800.44;4999709;28;20065;-56
2022/08/06 01:45:29;;;;;;;7.22;4.93;;;;;;;24.82;49.15;94780.16;5015361;28;20077;-55
2022/08/06 01:47:58;;;;;;;7.20;5.25;;;;;;;24.91;49.31;94797.59;4998723;28;20038;-56
2022/08/06 01:50:29;;;;;;;7.10;5.20;;;;;;;24.82;49.24;94787.06;5002887;28;20037;-58
2022/08/06 01:52:56;;;;;;;5.78;4.53;;;;;;;24.83;49.24;94788.56;5002681;28;20049;-58
2022/08/06 01:55:21;;;;;;;6.75;5.47;;;;;;;24.85;49.15;94790.75;4987390;28;20037;-63
2022/08/06 01:57:50;;;;;;;8.27;5.18;;;;;;;24.87;49.40;94799.91;5002086;28;20034;-66
2022/08/06 02:00:16;;;;;;;7.35;5.82;;;;;;;24.82;49.45;94795.25;4979159;28;20076;-67
2022/08/06 02:02:42;;;;;;;8.05;5.30;;;;;;;24.84;49.22;94790.03;4998872;28;20450;-61
2022/08/06 02:05:07;;;;;;;7.15;5.15;;;;;;;24.82;49.26;94792.53;5001797;28;20092;-68
2022/08/06 02:07:34;;;;;;;6.18;5.10;;;;;;;24.81;49.23;94784.84;5004019;28;20429;-63
2022/08/06 02:10:00;;;;;;;8.75;5.40;;;;;;;24.81;49.32;94784.84;5004505;28;20061;-61
2022/08/06 02:12:26;;;;;;;7.43;5.05;;;;;;;24.76;49.18;94776.78;5002908;28;20124;-64
2022/08/06 02:15:08;;;;;;;7.38;5.03;;;;;;;24.69;49.16;94777.41;5002459;28;20081;-69
2022/08/06 02:17:37;;;;;;;8.38;4.85;;;;;;;24.75;49.38;94769.84;5002320;28;20034;-68
2022/08/06 02:20:03;;;;;;;7.17;5.20;;;;;;;24.60;49.61;94753.22;5002454;28;20034;-67
2022/08/06 02:22:29;;;;;;;7.68;5.05;;;;;;;24.74;49.46;94779.28;5002518;28;20032;-67
2022/08/06 02:24:54;;;;;;;6.97;5.05;;;;;;;24.73;49.57;94773.09;5002815;28;20042;-66
2022/08/06 02:27:20;;;;;;;6.95;5.07;;;;;;;24.64;49.55;94764.59;5002031;28;20084;-64
2022/08/06 02:29:45;;;;;;;7.30;5.15;;;;;;;24.69;49.65;94761.75;5002090;28;20516;-56
2022/08/06 02:32:13;;;;;;;8.55;5.43;;;;;;;24.67;49.39;94771.72;5003662;28;20081;-67
2022/08/06 02:34:38;;;;;;;6.65;4.65;;;;;;;24.65;49.98;94760.56;5001574;28;20033;-55
2022/08/06 02:37:17;;;;;;;6.97;5.45;;;;;;;24.63;49.70;94763.09;5003664;28;20030;-64
2022/08/06 02:39:53;;;;;;;6.72;5.22;;;;;;;24.63;49.66;94774.75;4985562;28;20366;-61
2022/08/06 02:42:29;;;;;;;7.45;5.50;;;;;;;24.61;49.64;94782.00;5002075;28;20144;-57
2022/08/06 02:45:09;;;;;;;7.60;5.15;;;;;;;24.58;49.65;94772.13;5002860;28;20248;-56
2022/08/06 02:47:45;;;;;;;9.30;5.50;;;;;;;24.54;49.44;94777.16;5003130;28;20607;-60
2022/08/06 02:50:12;;;;;;;7.80;5.15;;;;;;;24.33;49.55;94740.78;4985822;28;20045;-63
2022/08/06 02:52:44;;;;;;;7.15;4.78;;;;;;;24.55;49.80;94775.91;5001587;28;20091;-64
2022/08/06 02:55:12;;;;;;;5.97;5.10;;;;;;;24.50;49.69;94771.28;4990271;28;20029;-58
2022/08/06 02:57:45;;;;;;;7.80;5.10;;;;;;;24.52;49.79;94779.69;5001095;28;20160;-57
2022/08/06 03:00:11;;;;;;;7.60;5.10;;;;;;;24.46;49.29;94770.84;4985346;28;20042;-61
2022/08/06 03:02:38;;;;;;;7.05;5.35;;;;;;;24.49;49.33;94780.72;5002122;28;20056;-67
2022/08/06 03:05:05;;;;;;;7.93;5.00;;;;;;;24.50;49.18;94787.66;4985137;28;20041;-56
2022/08/06 03:07:31;;;;;;;7.35;4.75;;;;;;;24.42;49.41;94784.06;4985151;28;20026;-62
2022/08/06 03:09:58;;;;;;;8.00;4.95;;;;;;;24.37;49.06;94779.44;5001288;28;20029;-63
2022/08/06 03:12:23;;;;;;;6.82;5.07;;;;;;;24.44;49.06;94795.22;5001430;28;20062;-56
2022/08/06 03:14:48;;;;;;;6.85;5.28;;;;;;;24.43;49.28;94788.28;4983795;28;20068;-61
2022/08/06 03:17:14;;;;;;;7.03;5.00;;;;;;;24.34;49.07;94775.03;5001933;28;20043;-62
2022/08/06 03:19:40;;;;;;;7.75;4.72;;;;;;;24.39;49.18;94782.38;4984736;28;20025;-56
2022/08/06 03:22:05;;;;;;;6.50;5.07;;;;;;;24.42;49.15;94792.25;5002908;28;20026;-62
2022/08/06 03:24:31;;;;;;;6.68;5.22;;;;;;;24.40;49.25;94789.31;4985065;28;20037;-61
2022/08/06 03:26:57;;;;;;;7.57;4.93;;;;;;;24.37;49.16;94795.81;5000564;28;20031;-60
2022/08/06 03:29:25;;;;;;;8.00;5.05;;;;;;;24.38;48.99;94794.56;5001088;28;20037;-59
2022/08/06 03:31:50;;;;;;;6.82;5.22;;;;;;;24.23;49.61;94763.50;5000906;28;20148;-58
2022/08/06 03:34:16;;;;;;;6.88;5.45;;;;;;;24.36;49.56;94786.16;5001631;28;20041;-69
2022/08/06 03:36:41;;;;;;;6.70;5.13;;;;;;;24.20;49.50;94765.31;5000676;28;20057;-64
2022/08/06 03:39:07;;;;;;;9.00;4.95;;;;;;;24.35;49.63;94792.88;4984646;28;20037;-60
2022/08/06 03:41:35;;;;;;;6.30;5.00;;;;;;;24.28;49.76;94773.63;5000958;28;20041;-62
2022/08/06 03:44:00;;;;;;;6.05;5.00;;;;;;;24.25;49.58;94778.13;4984679;28;20121;-55
2022/08/06 03:46:40;;;;;;;7.88;5.20;;;;;;;24.30;50.16;94785.47;5002080;28;20113;-59
2022/08/06 03:49:08;;;;;;;6.53;5.43;;;;;;;24.26;50.24;94785.06;4984217;28;20134;-62
2022/08/06 03:51:35;;;;;;;6.40;5.28;;;;;;;24.26;49.85;94785.06;5002044;28;20497;-55
2022/08/06 03:54:00;;;;;;;8.40;5.00;;;;;;;24.11;49.86;94768.41;5000664;28;20050;-62
2022/08/06 03:56:27;;;;;;;6.57;5.07;;;;;;;24.24;50.12;94782.09;5000492;28;20077;-55
2022/08/06 03:58:52;;;;;;;6.53;5.20;;;;;;;24.21;50.40;94785.84;4971338;28;20045;-58
2022/08/06 04:01:21;;;;;;;7.03;5.10;;;;;;;24.25;50.24;94791.75;4999918;28;20449;-60
2022/08/06 04:03:46;;;;;;;6.80;4.90;;;;;;;24.25;49.31;94797.22;5001724;28;20060;-62
2022/08/06 04:06:12;;;;;;;6.13;5.03;;;;;;;24.26;49.63;94795.97;4983391;28;20521;-58
2022/08/06 04:08:38;;;;;;;8.60;5.43;;;;;;;24.21;49.32;94794.03;5000351;28;20065;-65
2022/08/06 04:11:03;;;;;;;5.88;4.97;;;;;;;24.26;49.34;94809.63;4967644;28;20120;-61
2022/08/06 04:13:29;;;;;;;6.90;5.03;;;;;;;24.27;49.29;94808.34;5000675;28;20069;-68
2022/08/06 04:15:55;;;;;;;7.57;5.03;;;;;;;24.26;49.49;94806.88;4999876;28;20151;-61
2022/08/06 04:18:24;;;;;;;5.28;4.40;;;;;;;24.29;49.26;94811.31;5016071;28;20218;-65
2022/08/06 04:20:51;;;;;;;7.15;5.13;;;;;;;24.25;49.64;94816.31;5010413;28;20045;-60
2022/08/06 04:23:17;;;;;;;6.75;4.82;;;;;;;24.27;49.31;94808.34;4991528;28;20119;-57
2022/08/06 04:25:45;;;;;;;8.75;5.00;;;;;;;24.29;50.02;94811.31;5001183;28;20037;-64
2022/08/06 04:28:10;;;;;;;7.50;4.55;;;;;;;24.26;49.83;94812.34;5016689;28;20105;-58
2022/08/06 04:30:37;;;;;;;6.32;4.90;;;;;;;24.31;50.24;94819.69;5001277;28;20236;-57
2022/08/06 04:33:02;;;;;;;6.00;4.75;;;;;;;24.24;49.98;94814.09;5000211;28;20040;-68
2022/08/06 04:35:31;;;;;;;8.10;4.80;;;;;;;24.25;50.23;94805.41;4998817;28;20053;-62
2022/08/06 04:37:58;;;;;;;7.40;4.85;;;;;;;24.29;50.30;94821.47;4982550;28;20126;-57
2022/08/06 04:40:23;;;;;;;6.22;4.50;;;;;;;24.33;50.41;94811.03;5001719;28;20923;-65
2022/08/06 04:42:49;;;;;;;6.28;4.45;;;;;;;24.32;50.20;94821.19;5000880;28;20042;-57
2022/08/06 04:45:15;;;;;;;6.93;5.00;;;;;;;24.23;50.12;94813.38;5015507;28;20069;-62
2022/08/06 04:47:40;;;;;;;6.25;5.22;;;;;;;24.37;49.70;94834.03;5000969;28;20765;-57
2022/08/06 04:50:06;;;;;;;5.95;4.57;;;;;;;24.40;49.64;94827.53;5015947;28;20052;-69
2022/08/06 04:52:32;;;;;;;6.55;4.65;;;;;;;24.39;49.91;94826.03;4987478;28;20113;-61
2022/08/06 04:54:58;;;;;;;7.30;4.95;;;;;;;24.39;49.91;94826.03;4983010;28;20068;-63
2022/08/06 04:57:23;;;;;;;5.75;4.80;;;;;;;24.46;50.10;94833.63;4979886;28;20046;-57
2022/08/06 04:59:49;;;;;;;5.97;4.90;;;;;;;24.47;50.13;94829.66;4982019;28;20498;-59
2022/08/06 05:02:14;;;;;;;5.57;4.82;;;;;;;24.31;49.22;94808.78;4983734;28;20097;-62
2022/08/06 05:04:40;;;;;;;7.43;5.22;;;;;;;24.52;49.65;94845.22;4980809;28;20045;-66
2022/08/06 05:07:11;;;;;;;7.65;4.90;;;;;;;24.54;49.42;94837.22;4977657;28;20026;-57
2022/08/06 05:09:37;;;;;;;6.28;5.07;;;;;;;24.47;49.28;94832.38;4984113;28;20103;-57
2022/08/06 05:12:13;;;;;;;6.60;4.50;;;;;;;24.52;49.34;94834.28;4980736;28;20034;-57
2022/08/06 05:14:48;;;;;;;7.55;4.90;;;;;;;24.63;48.96;94842.28;4981328;28;20062;-60
2022/08/06 05:17:15;;;;;;;7.43;5.05;;;;;;;24.65;48.89;94837.03;4982748;28;20046;-56
2022/08/06 05:19:46;;;;;;;6.07;4.80;;;;;;;24.71;49.28;94843.13;4996267;28;20017;-63
2022/08/06 05:22:13;;;;;;;6.63;4.93;;;;;;;24.71;49.09;94834.94;4994538;28;20038;-64
2022/08/06 05:24:39;;;;;;;7.22;5.50;;;;;;;24.75;49.15;94835.38;4986550;28;20042;-65
2022/08/06 05:27:05;;;;;;;9.52;5.78;;;;;;;24.75;49.04;94824.47;4986628;28;20038;-59
2022/08/06 05:29:30;;;;;;;7.60;5.20;;;;;;;24.85;48.37;94840.66;4996875;28;20053;-62
2022/08/06 05:31:59;;;;;;;8.77;5.22;;;;;;;24.91;48.62;94837.84;5006844;28;20592;-60
2022/08/06 05:34:24;;;;;;;6.38;5.03;;;;;;;24.94;48.03;94837.50;5008387;28;20056;-66
2022/08/06 05:36:50;;;;;;;8.88;5.45;;;;;;;24.94;47.58;94815.66;5009618;28;20509;-61
2022/08/06 05:39:15;;;;;;;8.68;5.72;;;;;;;25.23;47.24;94842.00;4988016;28;20053;-62
2022/08/06 05:41:42;;;;;;;10.45;5.72;;;;;;;25.36;47.04;94850.19;5004616;28;20046;-64
2022/08/06 05:44:08;;;;;;;8.30;5.50;;;;;;;25.47;46.69;94839.03;5013875;28;20038;-59
2022/08/06 05:46:40;;;;;;;7.95;5.43;;;;;;;25.54;46.50;94827.47;5013398;28;20049;-62
2022/08/06 05:49:10;;;;;;;8.10;5.45;;;;;;;25.80;45.64;94839.88;5014846;28;20045;-60
2022/08/06 05:51:57;;;;;;;7.47;5.32;;;;;;;26.03;44.85;94846.34;5009450;28;20042;-61
2022/08/06 05:54:40;;;;;;;7.47;5.15;;;;;;;26.13;44.53;94830.94;5009874;28;20049;-59
2022/08/06 05:57:15;;;;;;;8.18;5.00;;;;;;;26.38;44.30;94838.34;5020662;28;20049;-63
2022/08/06 05:59:44;;;;;;;7.35;5.13;;;;;;;26.43;43.98;94828.53;4989706;28;20046;-62
2022/08/06 06:02:10;;;;;;;8.45;5.47;;;;;;;26.67;44.19;94833.69;5000047;28;20038;-63
2022/08/06 06:04:35;;;;;;;8.15;5.82;;;;;;;26.81;43.76;94836.53;5001158;28;20061;-57
2022/08/06 06:07:01;;;;;;;6.47;5.65;;;;;;;26.93;43.87;94832.25;5001556;28;20749;-56
2022/08/06 06:09:27;;;;;;;8.32;5.85;;;;;;;27.09;43.96;94828.38;5002185;28;20052;-59
2022/08/06 06:11:52;;;;;;;9.85;6.10;;;;;;;27.21;43.14;94829.56;4985517;28;20038;-55
2022/08/06 06:14:37;;;;;;;8.07;5.75;;;;;;;27.35;43.60;94839.13;5003770;28;20060;-58
2022/08/06 06:17:40;;;;;;;8.73;5.53;;;;;;;27.50;43.20;94833.78;5005606;28;20045;-57
2022/08/06 06:20:31;;;;;;;8.55;6.10;;;;;;;27.65;42.70;94828.34;5020541;28;20033;-60
2022/08/06 06:23:14;;;;;;;7.85;5.60;;;;;;;27.74;42.39;94825.84;5022385;28;20116;-62
2022/08/06 06:25:47;;;;;;;9.98;5.25;;;;;;;27.76;42.48;94824.03;5021644;28;20035;-55
2022/08/06 06:28:29;;;;;;;8.93;5.93;;;;;;;28.02;41.58;94823.03;5004326;28;20014;-56
2022/08/06 06:31:06;;;;;;;6.90;5.40;;;;;;;28.09;41.25;94820.34;5018311;28;20536;-64
2022/08/06 06:34:14;;;;;;;8.07;5.57;;;;;;;28.16;41.42;94827.88;5020621;28;20100;-57
2022/08/06 06:37:18;;;;;;;8.82;5.47;;;;;;;28.30;40.96;94816.16;5020393;28;20436;-60
2022/08/06 06:40:05;;;;;;;9.13;5.70;;;;;;;28.40;40.90;94819.09;5022089;28;20555;-58
2022/08/06 06:42:40;;;;;;;10.43;5.72;;;;;;;28.51;40.57;94814.00;5004067;28;20092;-63
2022/08/06 06:45:23;;;;;;;7.40;5.53;;;;;;;28.53;40.74;94805.94;5015549;28;20045;-63
2022/08/06 06:48:23;;;;;;;7.10;5.20;;;;;;;28.68;40.30;94810.75;5004544;28;20038;-62
2022/08/06 06:50:51;;;;;;;6.82;5.07;;;;;;;28.66;39.52;94791.31;5020524;28;20056;-59
2022/08/06 06:53:17;;;;;;;8.55;5.40;;;;;;;28.67;40.18;94776.28;4987376;28;20033;-60
2022/08/06 06:55:51;;;;;;;8.27;4.40;;;;;;;28.76;39.81;94774.47;5002439;28;20040;-60
2022/08/06 06:58:23;;;;;;;6.32;4.78;;;;;;;28.95;40.00;94780.34;4999470;28;20058;-62
2022/08/06 07:00:48;;;;;;;6.97;4.65;;;;;;;29.16;39.31;94805.56;4998210;28;20140;-58
2022/08/06 07:03:14;;;;;;;6.63;4.80;;;;;;;29.17;39.36;94796.06;5010009;28;20756;-57
2022/08/06 07:05:43;;;;;;;6.93;4.95;;;;;;;29.18;39.25;94792.03;5005189;28;20054;-60
2022/08/06 07:08:08;;;;;;;8.57;5.15;;;;;;;29.22;39.35;94797.88;4985087;28;20122;-64
2022/08/06 07:10:34;;;;;;;8.90;5.15;;;;;;;29.25;39.49;94803.03;5001670;28;20026;-62
2022/08/06 07:12:59;;;;;;;10.20;5.20;;;;;;;29.11;38.96;94776.25;5010439;28;20108;-63
2022/08/06 07:15:25;;;;;;;6.32;5.25;;;;;;;29.30;39.13;94787.63;4999600;28;20053;-61
2022/08/06 07:17:50;;;;;;;9.30;4.78;;;;;;;29.35;38.84;94789.44;4998622;28;20056;-60
2022/08/06 07:20:21;;;;;;;9.57;5.53;;;;;;;29.50;38.93;94794.91;5010577;28;20050;-58
2022/08/06 07:22:47;;;;;;;7.10;5.32;;;;;;;29.38;38.95;94761.53;5000568;28;20032;-60
2022/08/06 07:25:13;;;;;;;8.60;5.95;;;;;;;29.54;38.95;94784.25;4995089;28;20034;-62
2022/08/06 07:27:40;;;;;;;9.45;5.60;;;;;;;29.70;38.66;94780.88;5002735;28;20073;-62
2022/08/06 07:30:06;;;;;;;7.70;5.45;;;;;;;29.75;38.52;94777.94;5003294;28;20083;-58
2022/08/06 07:32:32;;;;;;;8.10;5.40;;;;;;;29.75;38.69;94780.69;5015847;28;20377;-58
2022/08/06 07:34:59;;;;;;;7.25;5.18;;;;;;;29.85;38.47;94786.34;5003504;28;20044;-62
2022/08/06 07:37:24;;;;;;;9.63;6.00;;;;;;;29.83;38.60;94778.66;5020660;28;20037;-62
2022/08/06 07:39:50;;;;;;;9.65;5.65;;;;;;;29.87;38.63;94773.50;4986943;28;20128;-61
2022/08/06 07:42:15;;;;;;;10.38;5.60;;;;;;;29.91;38.94;94768.34;5003338;28;20057;-59
2022/08/06 07:44:48;;;;;;;6.85;5.18;;;;;;;29.88;38.45;94757.69;5003932;28;20073;-58
2022/08/06 07:47:15;;;;;;;10.13;5.93;;;;;;;29.82;38.96;94752.41;5016870;28;20612;-60
2022/08/06 07:49:41;;;;;;;8.60;4.85;;;;;;;29.91;39.00;94768.34;5002922;28;20026;-65
2022/08/06 07:52:07;;;;;;;7.90;5.40;;;;;;;29.88;38.74;94763.94;4987279;28;20013;-64
2022/08/06 07:54:33;;;;;;;9.32;5.53;;;;;;;30.00;39.01;94765.00;4986480;28;20041;-62
2022/08/06 07:56:58;;;;;;;7.38;5.13;;;;;;;30.01;38.60;94771.94;4983821;28;20540;-57
2022/08/06 07:59:25;;;;;;;6.55;5.05;;;;;;;30.03;38.92;94761.13;5015859;28;20049;-66
2022/08/06 08:01:51;;;;;;;9.68;5.03;;;;;;;30.05;38.68;94766.78;4995356;28;20061;-66
2022/08/06 08:07:02;;;;;;;8.25;5.20;;;;;;;30.14;38.79;94759.97;5005461;28;20099;-68
2022/08/06 08:09:27;;;;;;;6.90;4.78;;;;;;;30.17;38.62;94757.53;5001804;28;20138;-62
2022/08/06 08:11:53;;;;;;;8.77;4.60;;;;;;;30.25;38.70;94757.47;5003518;28;20099;-65
2022/08/06 08:14:20;;;;;;;9.35;5.68;;;;;;;30.18;38.65;94752.78;4999078;28;20057;-62
2022/08/06 08:16:45;;;;;;;9.50;5.05;;;;;;;30.22;38.59;94759.34;4983240;28;20092;-59
2022/08/06 08:19:33;;;;;;;7.60;4.90;;;;;;;30.20;38.27;94739.16;5001654;28;20034;-66
2022/08/06 08:21:59;;;;;;;7.22;4.65;;;;;;;30.39;38.71;94761.47;5020699;28;20565;-62
2022/08/06 08:24:25;;;;;;;6.93;4.57;;;;;;;30.18;38.47;94736.25;5020151;28;20045;-66
2022/08/06 08:26:51;;;;;;;6.90;4.90;;;;;;;30.39;38.49;94761.47;4983306;28;20029;-69
2022/08/06 08:29:16;;;;;;;7.97;4.50;;;;;;;30.39;38.70;94758.72;5007217;28;20416;-62
2022/08/06 08:31:42;;;;;;;5.93;4.60;;;;;;;30.40;38.66;94746.38;5020451;28;20032;-65
2022/08/06 08:34:07;;;;;;;5.80;4.47;;;;;;;30.38;38.37;94743.47;5020434;28;20042;-63
2022/08/06 08:36:33;;;;;;;6.55;4.43;;;;;;;30.52;38.80;94752.91;5020438;28;20075;-75
2022/08/06 08:38:58;;;;;;;6.50;4.28;;;;;;;30.55;38.34;94751.78;5020836;28;20048;-59
2022/08/06 08:41:26;;;;;;;8.13;4.47;;;;;;;30.60;38.63;94759.09;5019536;28;20575;-61
2022/08/06 08:44:03;;;;;;;7.18;4.95;;;;;;;30.47;38.52;94729.06;5015730;28;20094;-66
2022/08/06 08:46:32;;;;;;;6.38;4.75;;;;;;;30.54;38.01;94742.03;5018577;28;20071;-59
2022/08/06 08:49:02;;;;;;;5.95;4.60;;;;;;;30.66;37.77;94752.06;5011674;28;20041;-60
2022/08/06 08:51:27;;;;;;;7.30;4.55;;;;;;;30.63;38.57;94752.44;5018074;28;20033;-63
2022/08/06 08:53:53;;;;;;;5.82;4.63;;;;;;;30.65;38.09;94756.84;5000179;28;20537;-66
2022/08/06 08:56:19;;;;;;;4.95;4.43;;;;;;;30.57;38.01;94727.13;4994735;28;20068;-61
2022/08/06 08:58:45;;;;;;;6.15;4.40;;;;;;;30.70;38.02;94747.63;4985313;28;20051;-62
2022/08/06 09:01:11;;;;;;;5.10;4.25;;;;;;;30.72;37.88;94745.03;4986069;28;20516;-67
2022/08/06 09:03:37;;;;;;;7.22;4.03;;;;;;;30.57;37.96;94710.59;5019456;28;20042;-64
2022/08/06 09:06:03;;;;;;;7.10;4.57;;;;;;;30.81;38.30;94758.19;4984680;28;20037;-57
2022/08/06 09:08:29;;;;;;;6.38;4.40;;;;;;;30.75;37.79;94746.66;5018632;28;20040;-57
2022/08/06 09:10:55;;;;;;;5.05;4.15;;;;;;;30.71;38.36;94721.50;5020827;28;20049;-63
2022/08/06 09:13:23;;;;;;;6.75;4.05;;;;;;;30.96;37.64;94747.06;5004748;28;20508;-62
2022/08/06 09:15:48;;;;;;;4.82;3.63;;;;;;;30.97;36.88;94743.00;4991285;28;20049;-58
2022/08/06 09:18:13;;;;;;;5.93;3.95;;;;;;;30.97;37.71;94731.97;5002948;28;20068;-61
2022/08/06 09:20:39;;;;;;;4.60;3.72;;;;;;;31.13;36.51;94722.22;5019915;28;20056;-65
2022/08/06 09:23:04;;;;;;;5.03;3.85;;;;;;;31.27;36.22;94743.41;5019967;28;20072;-63
2022/08/06 09:25:44;;;;;;;4.55;3.53;;;;;;;31.24;36.19;94732.78;5021356;28;20408;-61
2022/08/06 09:28:30;;;;;;;5.15;3.70;;;;;;;31.20;36.16;94721.44;5004635;28;20126;-59
2022/08/06 09:31:09;;;;;;;6.72;3.92;;;;;;;31.23;36.11;94725.81;5020798;28;20033;-61
2022/08/06 09:33:37;;;;;;;5.67;3.73;;;;;;;31.16;36.01;94715.56;5005603;28;20073;-57
2022/08/06 09:36:08;;;;;;;5.80;3.88;;;;;;;31.23;35.98;94731.31;5002313;28;20029;-62
2022/08/06 09:38:49;;;;;;;4.93;3.42;;;;;;;31.25;36.73;94723.19;5002609;28;20048;-66
2022/08/06 09:41:16;;;;;;;4.15;3.70;;;;;;;31.35;36.33;94729.53;5018590;28;20277;-69
2022/08/06 09:43:43;;;;;;;5.22;3.85;;;;;;;31.35;35.99;94726.78;5020085;28;20053;-62
2022/08/06 09:46:08;;;;;;;4.75;3.30;;;;;;;31.22;36.72;94702.25;5019957;28;20551;-65
2022/08/06 09:48:34;;;;;;;4.80;3.50;;;;;;;31.33;35.87;94723.84;5019939;28;20025;-75
2022/08/06 09:50:59;;;;;;;5.07;3.22;;;;;;;31.31;36.58;94715.41;5002520;28;20038;-71
2022/08/06 09:53:25;;;;;;;5.07;3.70;;;;;;;31.31;36.40;94720.94;5021177;28;20059;-62
2022/08/06 09:55:52;;;;;;;4.55;3.70;;;;;;;31.31;36.58;94720.94;5019828;28;20057;-64
2022/08/06 09:58:35;;;;;;;5.38;3.40;;;;;;;31.29;36.51;94713.22;5002632;28;20390;-67
2022/08/06 10:01:20;;;;;;;4.28;3.17;;;;;;;31.28;36.68;94722.06;5019169;28;20046;-61
2022/08/06 10:03:46;;;;;;;6.18;4.32;;;;;;;31.23;36.70;94709.25;4989254;28;20049;-71
2022/08/06 10:06:16;;;;;;;5.10;3.30;;;;;;;31.38;36.80;94714.59;5019446;28;20045;-66
2022/08/06 10:08:43;;;;;;;4.10;3.40;;;;;;;31.48;36.60;94720.94;5019934;28;20033;-60
2022/08/06 10:11:09;;;;;;;4.53;3.88;;;;;;;31.45;35.91;94708.28;5020791;28;20045;-61
2022/08/06 10:13:35;;;;;;;4.10;3.33;;;;;;;31.62;35.33;94705.50;5023200;28;20104;-57
2022/08/06 10:16:13;;;;;;;4.47;3.33;;;;;;;31.70;35.73;94713.13;5022082;28;20189;-60
2022/08/06 10:18:43;;;;;;;4.55;3.30;;;;;;;31.71;35.17;94702.78;5021845;28;20041;-60
2022/08/06 10:21:13;;;;;;;5.88;3.47;;;;;;;31.60;34.97;94694.28;5023294;28;20188;-59
2022/08/06 10:23:40;;;;;;;3.75;3.15;;;;;;;31.70;35.02;94707.59;5022654;28;20479;-59
2022/08/06 10:26:07;;;;;;;4.43;3.08;;;;;;;31.73;33.85;94695.41;5022448;28;20029;-58
2022/08/06 10:28:35;;;;;;;4.88;3.20;;;;;;;31.87;33.67;94690.97;5023066;28;20025;-60
2022/08/06 10:31:02;;;;;;;6.03;3.28;;;;;;;31.99;33.48;94697.47;5023932;28;20014;-60
2022/08/06 10:33:30;;;;;;;4.82;2.97;;;;;;;31.82;33.88;94697.50;5022633;28;20132;-61
2022/08/06 10:35:59;;;;;;;5.53;3.30;;;;;;;32.07;34.01;94700.13;5004963;28;20120;-63
2022/08/06 10:38:26;;;;;;;3.35;2.97;;;;;;;32.02;33.11;94688.03;4989141;28;20034;-62
2022/08/06 10:40:52;;;;;;;3.83;3.08;;;;;;;31.94;33.88;94670.81;5022756;28;20029;-68
2022/08/06 10:43:17;;;;;;;3.78;3.38;;;;;;;31.96;33.85;94695.84;5023246;28;20030;-58
2022/08/06 10:45:43;;;;;;;5.05;3.30;;;;;;;31.96;34.24;94698.63;5004679;28;20045;-59
2022/08/06 10:48:08;;;;;;;5.30;3.20;;;;;;;31.92;33.51;94684.47;5022216;28;20120;-58
2022/08/06 10:50:34;;;;;;;8.20;3.30;;;;;;;31.91;33.20;94671.94;5002767;28;20034;-58
2022/08/06 10:53:00;;;;;;;4.45;3.40;;;;;;;31.95;34.44;94683.34;5001738;28;20131;-63
2022/08/06 10:55:28;;;;;;;4.63;3.50;;;;;;;31.85;33.85;94685.28;5020829;28;20045;-63
2022/08/06 10:57:54;;;;;;;4.35;3.10;;;;;;;31.75;34.31;94656.88;5004338;28;20148;-65
2022/08/06 11:00:19;;;;;;;5.53;3.03;;;;;;;31.72;34.63;94655.28;5004492;28;20037;-60
2022/08/06 11:03:00;;;;;;;4.35;3.03;;;;;;;31.71;34.94;94648.28;5021716;28;20044;-63
2022/08/06 11:05:35;;;;;;;4.57;3.30;;;;;;;31.91;34.75;94677.47;5005067;28;20048;-58
2022/08/06 11:08:39;;;;;;;4.88;3.20;;;;;;;31.77;34.40;94662.56;5021859;28;20037;-68
2022/08/06 11:11:20;;;;;;;5.13;3.08;;;;;;;31.85;34.69;94679.75;5015283;28;20096;-59
2022/08/06 11:13:51;;;;;;;3.78;2.92;;;;;;;31.79;33.98;94665.50;5004313;28;20017;-65
2022/08/06 11:16:27;;;;;;;4.50;3.50;;;;;;;31.59;34.31;94673.50;5004176;28;20083;-57
2022/08/06 11:19:01;;;;;;;4.40;3.53;;;;;;;31.35;35.27;94682.63;5021286;28;20037;-57
2022/08/06 11:21:46;;;;;;;4.72;3.25;;;;;;;31.06;36.44;94673.38;5021262;28;20042;-64
2022/08/06 11:24:13;;;;;;;3.83;3.40;;;;;;;30.92;36.23;94675.00;5021902;28;20073;-62
2022/08/06 11:26:40;;;;;;;3.50;3.17;;;;;;;30.72;36.63;94667.81;5021507;28;20037;-57
2022/08/06 11:29:10;;;;;;;4.40;3.17;;;;;;;30.41;37.29;94665.19;5003604;28;20045;-57
2022/08/06 11:31:37;;;;;;;3.90;3.20;;;;;;;30.27;37.53;94661.22;5021075;28;20771;-64
2022/08/06 11:34:05;;;;;;;3.35;3.05;;;;;;;30.21;37.67;94657.97;5023149;28;20018;-59
2022/08/06 11:36:48;;;;;;;3.72;3.00;;;;;;;29.97;38.11;94666.22;5020489;28;20559;-59
2022/08/06 11:39:13;;;;;;;3.40;2.90;;;;;;;29.93;38.48;94674.88;5013490;28;20042;-61
2022/08/06 11:41:47;;;;;;;3.80;3.40;;;;;;;29.59;38.59;94656.69;5001014;28;20428;-67
2022/08/06 11:44:16;;;;;;;3.40;2.95;;;;;;;29.67;38.73;94661.59;5017563;28;20038;-66
2022/08/06 11:46:45;;;;;;;4.07;3.45;;;;;;;29.49;38.89;94672.34;5017838;28;20109;-66